sensor_id;sensor_type;location;lat;lon;timestamp;temperature;humidity
25504;DHT22;13410;52.114;5.718;2023-05-10T00:01:08;19.00;99.90
25504;DHT22;13410;52.114;5.718;2023-05-10T00:03:34;18.90;99.90
25504;DHT22;13410;52.114;5.718;2023-05-10T00:05:59;19.10;99.90
25504;DHT22;13410;52.114;5.718;2023-05-10T00:08:25;19.20;99.90
25504;DHT22;13410;52.114;5.718;2023-05-10T00:10:51;19.20;99.90
25504;DHT22;13410;52.114;5.718;2023-05-10T00:13:17;19.10;99.90
25504;DHT22;13410;52.114;5.718;2023-05-10T00:15:42;19.10;99.90
25504;DHT22;13410;52.114;5.718;2023-05-10T00:18:08;19.10;99.90
25504;DHT22;13410;52.114;5.718;2023-05-10T00:20:33;19.00;99.90
25504;DHT22;13410;52.114;5.718;2023-05-10T00:22:59;19.10;99.90
25504;DHT22;13410;52.114;5.718;2023-05-10T00:25:25;19.00;99.90
25504;DHT22;13410;52.114;5.718;2023-05-10T00:27:50;19.00;99.90
25504;DHT22;13410;52.114;5.718;2023-05-10T00:30:16;19.00;99.90
25504;DHT22;13410;52.114;5.718;2023-05-10T00:32:41;19.00;99.90
25504;DHT22;13410;52.114;5.718;2023-05-10T00:35:07;18.90;99.90
25504;DHT22;13410;52.114;5.718;2023-05-10T00:37:33;19.00;99.90
25504;DHT22;13410;52.114;5.718;2023-05-10T00:39:59;19.00;99.90
25504;DHT22;13410;52.114;5.718;2023-05-10T00:42:25;18.90;99.90
25504;DHT22;13410;52.114;5.718;2023-05-10T00:44:50;19.00;99.90
25504;DHT22;13410;52.114;5.718;2023-05-10T00:47:16;18.90;99.90
25504;DHT22;13410;52.114;5.718;2023-05-10T00:49:42;18.80;99.90
25504;DHT22;13410;52.114;5.718;2023-05-10T00:52:09;18.80;99.90
25504;DHT22;13410;52.114;5.718;2023-05-10T00:54:35;18.80;99.90
25504;DHT22;13410;52.114;5.718;2023-05-10T00:57:00;18.90;99.90
25504;DHT22;13410;52.114;5.718;2023-05-10T00:59:26;19.00;99.90
25504;DHT22;13410;52.114;5.718;2023-05-10T01:01:52;19.10;99.90
25504;DHT22;13410;52.114;5.718;2023-05-10T01:04:18;19.10;99.90
25504;DHT22;13410;52.114;5.718;2023-05-10T01:06:47;19.00;99.90
25504;DHT22;13410;52.114;5.718;2023-05-10T01:09:12;19.10;99.90
25504;DHT22;13410;52.114;5.718;2023-05-10T01:11:39;19.00;99.90
25504;DHT22;13410;52.114;5.718;2023-05-10T01:14:06;18.90;99.90
25504;DHT22;13410;52.114;5.718;2023-05-10T01:16:36;19.00;99.90
25504;DHT22;13410;52.114;5.718;2023-05-10T01:19:10;19.00;99.90
25504;DHT22;13410;52.114;5.718;2023-05-10T01:22:07;19.00;99.90
25504;DHT22;13410;52.114;5.718;2023-05-10T01:25:00;19.10;99.90
25504;DHT22;13410;52.114;5.718;2023-05-10T01:33:43;18.90;99.90
25504;DHT22;13410;52.114;5.718;2023-05-10T01:36:30;18.90;99.90
25504;DHT22;13410;52.114;5.718;2023-05-10T01:42:04;18.90;99.90
25504;DHT22;13410;52.114;5.718;2023-05-10T01:44:37;18.70;99.90
25504;DHT22;13410;52.114;5.718;2023-05-10T01:47:09;18.70;99.90
25504;DHT22;13410;52.114;5.718;2023-05-10T01:49:39;18.90;99.90
25504;DHT22;13410;52.114;5.718;2023-05-10T01:52:10;18.80;99.90
25504;DHT22;13410;52.114;5.718;2023-05-10T01:54:42;18.80;99.90
25504;DHT22;13410;52.114;5.718;2023-05-10T01:57:10;18.70;99.90
25504;DHT22;13410;52.114;5.718;2023-05-10T01:59:40;18.70;99.90
25504;DHT22;13410;52.114;5.718;2023-05-10T02:02:08;18.90;99.90
25504;DHT22;13410;52.114;5.718;2023-05-10T02:04:39;18.90;99.90
25504;DHT22;13410;52.114;5.718;2023-05-10T02:07:06;18.80;99.90
25504;DHT22;13410;52.114;5.718;2023-05-10T02:09:33;18.80;99.90
25504;DHT22;13410;52.114;5.718;2023-05-10T02:12:01;18.90;99.90
25504;DHT22;13410;52.114;5.718;2023-05-10T02:14:30;18.90;99.90
25504;DHT22;13410;52.114;5.718;2023-05-10T02:16:56;18.90;99.90
25504;DHT22;13410;52.114;5.718;2023-05-10T02:19:28;18.70;99.90
25504;DHT22;13410;52.114;5.718;2023-05-10T02:21:56;18.80;99.90
25504;DHT22;13410;52.114;5.718;2023-05-10T02:24:26;18.80;99.90
25504;DHT22;13410;52.114;5.718;2023-05-10T02:26:54;18.90;99.90
25504;DHT22;13410;52.114;5.718;2023-05-10T02:29:23;18.70;99.90
25504;DHT22;13410;52.114;5.718;2023-05-10T02:31:51;18.80;99.90
25504;DHT22;13410;52.114;5.718;2023-05-10T02:34:19;18.70;99.90
25504;DHT22;13410;52.114;5.718;2023-05-10T02:36:47;18.80;99.90
25504;DHT22;13410;52.114;5.718;2023-05-10T02:39:14;18.80;99.90
25504;DHT22;13410;52.114;5.718;2023-05-10T02:41:41;18.90;99.90
25504;DHT22;13410;52.114;5.718;2023-05-10T02:44:07;18.70;99.90
25504;DHT22;13410;52.114;5.718;2023-05-10T02:46:34;18.60;99.90
25504;DHT22;13410;52.114;5.718;2023-05-10T02:49:01;18.60;99.90
25504;DHT22;13410;52.114;5.718;2023-05-10T02:51:31;18.70;99.90
25504;DHT22;13410;52.114;5.718;2023-05-10T02:53:57;18.70;99.90
25504;DHT22;13410;52.114;5.718;2023-05-10T02:56:33;18.70;99.90
25504;DHT22;13410;52.114;5.718;2023-05-10T02:58:59;18.70;99.90
25504;DHT22;13410;52.114;5.718;2023-05-10T03:01:25;18.80;99.90
25504;DHT22;13410;52.114;5.718;2023-05-10T03:03:50;18.80;99.90
25504;DHT22;13410;52.114;5.718;2023-05-10T03:06:16;18.80;99.90
25504;DHT22;13410;52.114;5.718;2023-05-10T03:08:42;18.80;99.90
25504;DHT22;13410;52.114;5.718;2023-05-10T03:11:22;18.80;99.90
25504;DHT22;13410;52.114;5.718;2023-05-10T03:14:04;18.60;99.90
25504;DHT22;13410;52.114;5.718;2023-05-10T03:16:45;18.70;99.90
25504;DHT22;13410;52.114;5.718;2023-05-10T03:19:17;18.60;99.90
25504;DHT22;13410;52.114;5.718;2023-05-10T03:21:50;18.70;99.90
25504;DHT22;13410;52.114;5.718;2023-05-10T03:24:20;18.70;99.90
25504;DHT22;13410;52.114;5.718;2023-05-10T03:26:47;18.70;99.90
25504;DHT22;13410;52.114;5.718;2023-05-10T03:29:14;18.70;99.90
25504;DHT22;13410;52.114;5.718;2023-05-10T03:31:41;18.70;99.90
25504;DHT22;13410;52.114;5.718;2023-05-10T03:34:06;18.80;99.90
25504;DHT22;13410;52.114;5.718;2023-05-10T03:36:32;18.70;99.90
25504;DHT22;13410;52.114;5.718;2023-05-10T03:38:58;18.60;99.90
25504;DHT22;13410;52.114;5.718;2023-05-10T03:41:23;18.70;99.90
25504;DHT22;13410;52.114;5.718;2023-05-10T03:43:50;18.50;99.90
25504;DHT22;13410;52.114;5.718;2023-05-10T03:46:16;18.40;99.90
25504;DHT22;13410;52.114;5.718;2023-05-10T03:48:41;18.50;99.90
25504;DHT22;13410;52.114;5.718;2023-05-10T03:51:07;18.30;99.90
25504;DHT22;13410;52.114;5.718;2023-05-10T03:53:33;18.30;99.90
25504;DHT22;13410;52.114;5.718;2023-05-10T03:55:58;18.20;99.90
25504;DHT22;13410;52.114;5.718;2023-05-10T03:58:24;18.10;99.90
25504;DHT22;13410;52.114;5.718;2023-05-10T04:00:51;18.00;99.90
25504;DHT22;13410;52.114;5.718;2023-05-10T04:03:16;17.90;99.90
25504;DHT22;13410;52.114;5.718;2023-05-10T04:05:43;17.90;99.90
25504;DHT22;13410;52.114;5.718;2023-05-10T04:08:08;17.90;99.90
25504;DHT22;13410;52.114;5.718;2023-05-10T04:10:34;17.80;99.90
25504;DHT22;13410;52.114;5.718;2023-05-10T04:13:00;17.70;99.90
25504;DHT22;13410;52.114;5.718;2023-05-10T04:15:25;17.70;99.90
25504;DHT22;13410;52.114;5.718;2023-05-10T04:17:51;17.70;99.90
25504;DHT22;13410;52.114;5.718;2023-05-10T04:20:17;17.80;99.90
25504;DHT22;13410;52.114;5.718;2023-05-10T04:22:42;17.80;99.90
25504;DHT22;13410;52.114;5.718;2023-05-10T04:25:08;17.90;99.90
25504;DHT22;13410;52.114;5.718;2023-05-10T04:27:34;17.90;99.90
25504;DHT22;13410;52.114;5.718;2023-05-10T04:29:59;17.80;99.90
25504;DHT22;13410;52.114;5.718;2023-05-10T04:32:25;18.00;99.90
25504;DHT22;13410;52.114;5.718;2023-05-10T04:34:51;18.00;99.90
25504;DHT22;13410;52.114;5.718;2023-05-10T04:37:17;18.00;99.90
25504;DHT22;13410;52.114;5.718;2023-05-10T04:39:43;17.90;99.90
25504;DHT22;13410;52.114;5.718;2023-05-10T04:42:09;18.00;99.90
25504;DHT22;13410;52.114;5.718;2023-05-10T04:44:34;17.90;99.90
25504;DHT22;13410;52.114;5.718;2023-05-10T04:47:00;18.00;99.90
25504;DHT22;13410;52.114;5.718;2023-05-10T04:49:27;18.00;99.90
25504;DHT22;13410;52.114;5.718;2023-05-10T04:51:53;18.00;99.90
25504;DHT22;13410;52.114;5.718;2023-05-10T04:54:19;17.80;99.90
25504;DHT22;13410;52.114;5.718;2023-05-10T04:56:44;17.90;99.90
25504;DHT22;13410;52.114;5.718;2023-05-10T04:59:10;18.20;99.90
25504;DHT22;13410;52.114;5.718;2023-05-10T05:01:35;18.00;99.90
25504;DHT22;13410;52.114;5.718;2023-05-10T05:04:01;18.10;99.90
25504;DHT22;13410;52.114;5.718;2023-05-10T05:06:26;18.10;99.90
25504;DHT22;13410;52.114;5.718;2023-05-10T05:08:52;18.20;99.90
25504;DHT22;13410;52.114;5.718;2023-05-10T05:11:18;18.10;99.90
25504;DHT22;13410;52.114;5.718;2023-05-10T05:13:43;18.10;99.90
25504;DHT22;13410;52.114;5.718;2023-05-10T05:16:09;18.30;99.90
25504;DHT22;13410;52.114;5.718;2023-05-10T05:18:36;18.20;99.90
25504;DHT22;13410;52.114;5.718;2023-05-10T05:21:02;18.20;99.90
25504;DHT22;13410;52.114;5.718;2023-05-10T05:23:27;18.20;99.90
25504;DHT22;13410;52.114;5.718;2023-05-10T05:25:53;18.20;99.90
25504;DHT22;13410;52.114;5.718;2023-05-10T05:28:20;18.20;99.90
25504;DHT22;13410;52.114;5.718;2023-05-10T05:30:47;18.20;99.90
25504;DHT22;13410;52.114;5.718;2023-05-10T05:33:15;18.30;99.90
25504;DHT22;13410;52.114;5.718;2023-05-10T05:35:41;18.30;99.90
25504;DHT22;13410;52.114;5.718;2023-05-10T05:38:08;18.40;99.90
25504;DHT22;13410;52.114;5.718;2023-05-10T05:40:34;18.40;99.90
25504;DHT22;13410;52.114;5.718;2023-05-10T05:42:59;18.40;99.90
25504;DHT22;13410;52.114;5.718;2023-05-10T05:45:25;18.40;99.90
25504;DHT22;13410;52.114;5.718;2023-05-10T05:47:50;18.40;99.90
25504;DHT22;13410;52.114;5.718;2023-05-10T05:50:16;18.60;99.90
25504;DHT22;13410;52.114;5.718;2023-05-10T05:52:42;18.60;99.90
25504;DHT22;13410;52.114;5.718;2023-05-10T05:55:07;18.60;99.90
25504;DHT22;13410;52.114;5.718;2023-05-10T05:57:33;18.70;99.90
25504;DHT22;13410;52.114;5.718;2023-05-10T05:59:58;18.60;99.90
25504;DHT22;13410;52.114;5.718;2023-05-10T06:02:24;18.50;99.90
25504;DHT22;13410;52.114;5.718;2023-05-10T06:04:50;18.50;99.90
25504;DHT22;13410;52.114;5.718;2023-05-10T06:07:16;18.40;99.90
25504;DHT22;13410;52.114;5.718;2023-05-10T06:09:41;18.30;99.90
25504;DHT22;13410;52.114;5.718;2023-05-10T06:12:07;18.50;99.90
25504;DHT22;13410;52.114;5.718;2023-05-10T06:14:32;18.40;99.90
25504;DHT22;13410;52.114;5.718;2023-05-10T06:16:58;18.50;99.90
25504;DHT22;13410;52.114;5.718;2023-05-10T06:19:25;18.60;99.90
25504;DHT22;13410;52.114;5.718;2023-05-10T06:21:51;18.50;99.90
25504;DHT22;13410;52.114;5.718;2023-05-10T06:24:17;18.60;99.90
25504;DHT22;13410;52.114;5.718;2023-05-10T06:26:42;18.60;99.90
25504;DHT22;13410;52.114;5.718;2023-05-10T06:29:08;18.50;99.90
25504;DHT22;13410;52.114;5.718;2023-05-10T06:31:33;18.40;99.90
25504;DHT22;13410;52.114;5.718;2023-05-10T06:33:59;18.50;99.90
25504;DHT22;13410;52.114;5.718;2023-05-10T06:36:25;18.40;99.90
25504;DHT22;13410;52.114;5.718;2023-05-10T06:38:51;18.40;99.90
25504;DHT22;13410;52.114;5.718;2023-05-10T06:41:17;18.30;99.90
25504;DHT22;13410;52.114;5.718;2023-05-10T06:43:42;18.20;99.90
25504;DHT22;13410;52.114;5.718;2023-05-10T06:46:08;18.00;99.90
25504;DHT22;13410;52.114;5.718;2023-05-10T06:48:34;18.00;99.90
25504;DHT22;13410;52.114;5.718;2023-05-10T06:51:00;18.10;99.90
25504;DHT22;13410;52.114;5.718;2023-05-10T06:53:25;18.10;99.90
25504;DHT22;13410;52.114;5.718;2023-05-10T06:55:51;18.20;99.90
25504;DHT22;13410;52.114;5.718;2023-05-10T06:58:16;18.20;99.90
25504;DHT22;13410;52.114;5.718;2023-05-10T07:00:42;18.20;99.90
25504;DHT22;13410;52.114;5.718;2023-05-10T07:03:09;18.10;99.90
25504;DHT22;13410;52.114;5.718;2023-05-10T07:05:35;17.70;99.90
25504;DHT22;13410;52.114;5.718;2023-05-10T07:08:00;17.70;99.90
25504;DHT22;13410;52.114;5.718;2023-05-10T07:10:26;17.70;99.90
25504;DHT22;13410;52.114;5.718;2023-05-10T07:12:52;17.50;99.90
25504;DHT22;13410;52.114;5.718;2023-05-10T07:15:18;17.50;99.90
25504;DHT22;13410;52.114;5.718;2023-05-10T07:17:43;17.70;99.90
25504;DHT22;13410;52.114;5.718;2023-05-10T07:20:09;17.80;99.90
25504;DHT22;13410;52.114;5.718;2023-05-10T07:22:35;18.10;99.90
25504;DHT22;13410;52.114;5.718;2023-05-10T07:25:00;18.50;99.90
25504;DHT22;13410;52.114;5.718;2023-05-10T07:27:26;18.70;99.90
25504;DHT22;13410;52.114;5.718;2023-05-10T07:29:52;18.90;99.90
25504;DHT22;13410;52.114;5.718;2023-05-10T07:32:17;19.00;99.90
25504;DHT22;13410;52.114;5.718;2023-05-10T07:34:43;18.70;99.90
25504;DHT22;13410;52.114;5.718;2023-05-10T07:37:08;18.50;99.90
25504;DHT22;13410;52.114;5.718;2023-05-10T07:39:34;18.40;99.90
25504;DHT22;13410;52.114;5.718;2023-05-10T07:41:59;18.30;99.90
25504;DHT22;13410;52.114;5.718;2023-05-10T07:44:25;18.40;99.90
25504;DHT22;13410;52.114;5.718;2023-05-10T07:46:51;18.40;99.90
25504;DHT22;13410;52.114;5.718;2023-05-10T07:49:17;18.50;99.90
25504;DHT22;13410;52.114;5.718;2023-05-10T07:51:42;18.60;99.90
25504;DHT22;13410;52.114;5.718;2023-05-10T07:54:08;18.70;99.90
25504;DHT22;13410;52.114;5.718;2023-05-10T07:56:34;18.80;99.90
25504;DHT22;13410;52.114;5.718;2023-05-10T07:59:00;19.00;99.90
25504;DHT22;13410;52.114;5.718;2023-05-10T08:01:29;19.40;99.90
25504;DHT22;13410;52.114;5.718;2023-05-10T08:03:55;19.50;99.90
25504;DHT22;13410;52.114;5.718;2023-05-10T08:06:20;19.40;99.90
25504;DHT22;13410;52.114;5.718;2023-05-10T08:08:47;19.50;99.90
25504;DHT22;13410;52.114;5.718;2023-05-10T08:11:17;19.50;99.90
25504;DHT22;13410;52.114;5.718;2023-05-10T08:13:44;19.50;99.90
25504;DHT22;13410;52.114;5.718;2023-05-10T08:16:09;19.90;99.90
25504;DHT22;13410;52.114;5.718;2023-05-10T08:18:35;19.90;99.90
25504;DHT22;13410;52.114;5.718;2023-05-10T08:21:01;20.10;99.90
25504;DHT22;13410;52.114;5.718;2023-05-10T08:23:26;20.10;99.90
25504;DHT22;13410;52.114;5.718;2023-05-10T08:25:52;20.10;99.90
25504;DHT22;13410;52.114;5.718;2023-05-10T08:28:17;20.10;99.90
25504;DHT22;13410;52.114;5.718;2023-05-10T08:30:43;20.20;99.90
25504;DHT22;13410;52.114;5.718;2023-05-10T08:33:08;20.10;99.90
25504;DHT22;13410;52.114;5.718;2023-05-10T08:35:34;20.10;99.90
25504;DHT22;13410;52.114;5.718;2023-05-10T08:38:00;20.10;99.90
25504;DHT22;13410;52.114;5.718;2023-05-10T08:40:26;19.90;99.90
25504;DHT22;13410;52.114;5.718;2023-05-10T08:43:12;19.70;99.90
25504;DHT22;13410;52.114;5.718;2023-05-10T08:45:42;19.20;99.90
25504;DHT22;13410;52.114;5.718;2023-05-10T08:48:11;19.10;99.90
25504;DHT22;13410;52.114;5.718;2023-05-10T08:50:38;19.30;99.90
25504;DHT22;13410;52.114;5.718;2023-05-10T08:53:09;19.50;99.90
25504;DHT22;13410;52.114;5.718;2023-05-10T08:55:35;19.50;99.90
25504;DHT22;13410;52.114;5.718;2023-05-10T08:58:03;19.70;99.90
25504;DHT22;13410;52.114;5.718;2023-05-10T09:00:29;19.90;99.90
25504;DHT22;13410;52.114;5.718;2023-05-10T09:02:56;20.00;99.90
25504;DHT22;13410;52.114;5.718;2023-05-10T09:05:22;20.20;99.90
25504;DHT22;13410;52.114;5.718;2023-05-10T09:07:48;20.50;99.90
25504;DHT22;13410;52.114;5.718;2023-05-10T09:10:14;20.40;99.90
25504;DHT22;13410;52.114;5.718;2023-05-10T09:12:40;20.50;99.90
25504;DHT22;13410;52.114;5.718;2023-05-10T09:15:07;20.80;99.90
25504;DHT22;13410;52.114;5.718;2023-05-10T09:17:34;20.90;99.90
25504;DHT22;13410;52.114;5.718;2023-05-10T09:20:01;21.00;99.90
25504;DHT22;13410;52.114;5.718;2023-05-10T09:22:27;21.00;99.90
25504;DHT22;13410;52.114;5.718;2023-05-10T09:25:15;20.80;99.90
25504;DHT22;13410;52.114;5.718;2023-05-10T09:27:43;20.70;99.90
25504;DHT22;13410;52.114;5.718;2023-05-10T09:30:10;20.80;99.90
25504;DHT22;13410;52.114;5.718;2023-05-10T09:32:43;20.70;99.90
25504;DHT22;13410;52.114;5.718;2023-05-10T09:35:17;20.50;99.90
25504;DHT22;13410;52.114;5.718;2023-05-10T09:37:44;20.10;99.90
25504;DHT22;13410;52.114;5.718;2023-05-10T09:40:15;20.00;99.90
25504;DHT22;13410;52.114;5.718;2023-05-10T09:42:43;19.90;99.90
25504;DHT22;13410;52.114;5.718;2023-05-10T09:45:15;19.80;99.90
25504;DHT22;13410;52.114;5.718;2023-05-10T09:47:41;19.60;99.90
25504;DHT22;13410;52.114;5.718;2023-05-10T09:50:07;19.30;99.90
25504;DHT22;13410;52.114;5.718;2023-05-10T09:55:40;19.30;99.90
25504;DHT22;13410;52.114;5.718;2023-05-10T09:58:06;19.50;99.90
25504;DHT22;13410;52.114;5.718;2023-05-10T10:00:37;19.70;99.90
25504;DHT22;13410;52.114;5.718;2023-05-10T10:03:04;19.60;99.90
25504;DHT22;13410;52.114;5.718;2023-05-10T10:05:34;19.80;99.90
25504;DHT22;13410;52.114;5.718;2023-05-10T10:08:04;20.10;99.90
25504;DHT22;13410;52.114;5.718;2023-05-10T10:10:31;20.30;99.90
25504;DHT22;13410;52.114;5.718;2023-05-10T10:12:57;20.60;99.90
25504;DHT22;13410;52.114;5.718;2023-05-10T10:15:23;21.00;99.90
25504;DHT22;13410;52.114;5.718;2023-05-10T10:17:50;21.30;99.90
25504;DHT22;13410;52.114;5.718;2023-05-10T10:20:17;21.70;99.90
25504;DHT22;13410;52.114;5.718;2023-05-10T10:22:43;22.20;99.90
25504;DHT22;13410;52.114;5.718;2023-05-10T10:25:10;22.60;99.90
25504;DHT22;13410;52.114;5.718;2023-05-10T10:30:21;22.60;99.90
25504;DHT22;13410;52.114;5.718;2023-05-10T10:33:13;23.00;99.90
25504;DHT22;13410;52.114;5.718;2023-05-10T10:35:45;23.60;99.90
25504;DHT22;13410;52.114;5.718;2023-05-10T10:38:12;24.00;99.90
25504;DHT22;13410;52.114;5.718;2023-05-10T10:40:38;24.10;99.90
25504;DHT22;13410;52.114;5.718;2023-05-10T10:43:24;24.20;99.90
25504;DHT22;13410;52.114;5.718;2023-05-10T10:46:17;24.70;99.90
25504;DHT22;13410;52.114;5.718;2023-05-10T10:48:52;24.90;99.90
25504;DHT22;13410;52.114;5.718;2023-05-10T10:51:37;24.90;99.90
25504;DHT22;13410;52.114;5.718;2023-05-10T10:54:12;24.70;99.90
25504;DHT22;13410;52.114;5.718;2023-05-10T10:56:37;24.50;99.90
25504;DHT22;13410;52.114;5.718;2023-05-10T10:59:03;24.10;99.90
25504;DHT22;13410;52.114;5.718;2023-05-10T11:01:35;23.90;99.90
25504;DHT22;13410;52.114;5.718;2023-05-10T11:06:33;23.80;99.90
25504;DHT22;13410;52.114;5.718;2023-05-10T11:09:10;23.80;99.90
25504;DHT22;13410;52.114;5.718;2023-05-10T11:11:42;22.90;99.90
25504;DHT22;13410;52.114;5.718;2023-05-10T11:14:13;22.20;99.90
25504;DHT22;13410;52.114;5.718;2023-05-10T11:16:43;22.00;99.90
25504;DHT22;13410;52.114;5.718;2023-05-10T11:19:11;22.10;99.90
25504;DHT22;13410;52.114;5.718;2023-05-10T11:21:49;22.60;99.90
25504;DHT22;13410;52.114;5.718;2023-05-10T11:24:17;22.90;99.90
25504;DHT22;13410;52.114;5.718;2023-05-10T11:26:43;23.10;99.90
25504;DHT22;13410;52.114;5.718;2023-05-10T11:29:09;23.20;99.90
25504;DHT22;13410;52.114;5.718;2023-05-10T11:31:35;23.40;99.90
25504;DHT22;13410;52.114;5.718;2023-05-10T11:34:06;23.60;99.90
25504;DHT22;13410;52.114;5.718;2023-05-10T11:36:34;23.80;99.90
25504;DHT22;13410;52.114;5.718;2023-05-10T11:39:01;24.10;99.90
25504;DHT22;13410;52.114;5.718;2023-05-10T11:41:29;24.30;99.90
25504;DHT22;13410;52.114;5.718;2023-05-10T11:43:55;24.20;99.90
25504;DHT22;13410;52.114;5.718;2023-05-10T11:46:23;24.20;99.90
25504;DHT22;13410;52.114;5.718;2023-05-10T11:48:51;24.40;99.90
25504;DHT22;13410;52.114;5.718;2023-05-10T11:51:20;24.50;99.90
25504;DHT22;13410;52.114;5.718;2023-05-10T11:53:46;24.60;99.90
25504;DHT22;13410;52.114;5.718;2023-05-10T11:56:12;24.60;99.90
25504;DHT22;13410;52.114;5.718;2023-05-10T11:58:39;24.90;99.90
25504;DHT22;13410;52.114;5.718;2023-05-10T12:01:06;24.90;99.90
25504;DHT22;13410;52.114;5.718;2023-05-10T12:03:33;24.90;99.90
25504;DHT22;13410;52.114;5.718;2023-05-10T12:06:00;24.90;99.90
25504;DHT22;13410;52.114;5.718;2023-05-10T12:08:27;24.70;99.90
25504;DHT22;13410;52.114;5.718;2023-05-10T12:11:03;24.80;99.90
25504;DHT22;13410;52.114;5.718;2023-05-10T12:13:28;24.60;99.90
25504;DHT22;13410;52.114;5.718;2023-05-10T12:15:57;24.30;99.90
25504;DHT22;13410;52.114;5.718;2023-05-10T12:18:23;24.60;99.90
25504;DHT22;13410;52.114;5.718;2023-05-10T12:20:52;24.80;99.90
25504;DHT22;13410;52.114;5.718;2023-05-10T12:23:19;24.80;99.90
25504;DHT22;13410;52.114;5.718;2023-05-10T12:25:45;24.80;99.90
25504;DHT22;13410;52.114;5.718;2023-05-10T12:28:11;24.50;99.90
25504;DHT22;13410;52.114;5.718;2023-05-10T12:30:37;24.40;99.90
25504;DHT22;13410;52.114;5.718;2023-05-10T12:33:11;24.60;99.90
25504;DHT22;13410;52.114;5.718;2023-05-10T12:35:51;24.60;99.90
25504;DHT22;13410;52.114;5.718;2023-05-10T12:38:28;24.60;99.90
25504;DHT22;13410;52.114;5.718;2023-05-10T12:41:00;24.60;99.90
25504;DHT22;13410;52.114;5.718;2023-05-10T12:43:26;24.40;99.90
25504;DHT22;13410;52.114;5.718;2023-05-10T12:45:52;24.30;99.90
25504;DHT22;13410;52.114;5.718;2023-05-10T12:48:18;24.20;99.90
25504;DHT22;13410;52.114;5.718;2023-05-10T12:50:44;24.30;99.90
25504;DHT22;13410;52.114;5.718;2023-05-10T12:53:09;24.60;99.90
25504;DHT22;13410;52.114;5.718;2023-05-10T12:55:35;24.60;99.90
25504;DHT22;13410;52.114;5.718;2023-05-10T12:58:00;24.60;99.90
25504;DHT22;13410;52.114;5.718;2023-05-10T13:00:26;24.70;99.90
25504;DHT22;13410;52.114;5.718;2023-05-10T13:02:52;24.70;99.90
25504;DHT22;13410;52.114;5.718;2023-05-10T13:05:18;24.70;99.90
25504;DHT22;13410;52.114;5.718;2023-05-10T13:07:44;25.00;99.90
25504;DHT22;13410;52.114;5.718;2023-05-10T13:10:09;24.70;99.90
25504;DHT22;13410;52.114;5.718;2023-05-10T13:12:35;24.60;99.90
25504;DHT22;13410;52.114;5.718;2023-05-10T13:15:01;24.60;99.90
25504;DHT22;13410;52.114;5.718;2023-05-10T13:17:28;24.40;99.90
25504;DHT22;13410;52.114;5.718;2023-05-10T13:19:54;24.20;99.90
25504;DHT22;13410;52.114;5.718;2023-05-10T13:22:20;24.50;99.90
25504;DHT22;13410;52.114;5.718;2023-05-10T13:24:45;24.90;99.90
25504;DHT22;13410;52.114;5.718;2023-05-10T13:27:11;25.10;99.90
25504;DHT22;13410;52.114;5.718;2023-05-10T13:29:36;25.20;99.90
25504;DHT22;13410;52.114;5.718;2023-05-10T13:32:02;25.10;99.90
25504;DHT22;13410;52.114;5.718;2023-05-10T13:34:27;24.90;99.90
25504;DHT22;13410;52.114;5.718;2023-05-10T13:36:53;25.00;99.90
25504;DHT22;13410;52.114;5.718;2023-05-10T13:39:20;25.10;99.90
25504;DHT22;13410;52.114;5.718;2023-05-10T13:41:47;24.90;99.90
25504;DHT22;13410;52.114;5.718;2023-05-10T13:44:13;24.20;99.90
25504;DHT22;13410;52.114;5.718;2023-05-10T13:46:42;24.30;99.90
25504;DHT22;13410;52.114;5.718;2023-05-10T13:49:09;23.90;99.90
25504;DHT22;13410;52.114;5.718;2023-05-10T13:51:35;23.60;99.90
25504;DHT22;13410;52.114;5.718;2023-05-10T13:54:04;23.10;99.90
25504;DHT22;13410;52.114;5.718;2023-05-10T13:56:29;22.80;99.90
25504;DHT22;13410;52.114;5.718;2023-05-10T13:58:56;23.00;99.90
25504;DHT22;13410;52.114;5.718;2023-05-10T14:01:22;23.20;99.90
25504;DHT22;13410;52.114;5.718;2023-05-10T14:03:48;23.00;99.90
25504;DHT22;13410;52.114;5.718;2023-05-10T14:06:14;22.70;99.90
25504;DHT22;13410;52.114;5.718;2023-05-10T14:08:39;22.60;99.90
25504;DHT22;13410;52.114;5.718;2023-05-10T14:11:06;22.50;99.90
25504;DHT22;13410;52.114;5.718;2023-05-10T14:13:32;22.20;99.90
25504;DHT22;13410;52.114;5.718;2023-05-10T14:15:58;21.80;99.90
25504;DHT22;13410;52.114;5.718;2023-05-10T14:18:28;21.60;99.90
25504;DHT22;13410;52.114;5.718;2023-05-10T14:20:54;21.00;99.90
25504;DHT22;13410;52.114;5.718;2023-05-10T14:23:21;20.80;99.90
25504;DHT22;13410;52.114;5.718;2023-05-10T14:25:50;20.60;99.90
25504;DHT22;13410;52.114;5.718;2023-05-10T14:28:16;20.20;99.90
25504;DHT22;13410;52.114;5.718;2023-05-10T14:30:42;20.20;99.90
25504;DHT22;13410;52.114;5.718;2023-05-10T14:33:08;20.30;99.90
25504;DHT22;13410;52.114;5.718;2023-05-10T14:35:34;20.20;99.90
25504;DHT22;13410;52.114;5.718;2023-05-10T14:37:59;20.10;99.90
25504;DHT22;13410;52.114;5.718;2023-05-10T14:40:25;19.90;99.90
25504;DHT22;13410;52.114;5.718;2023-05-10T14:42:51;19.80;99.90
25504;DHT22;13410;52.114;5.718;2023-05-10T14:45:18;19.50;99.90
25504;DHT22;13410;52.114;5.718;2023-05-10T14:47:44;19.40;99.90
25504;DHT22;13410;52.114;5.718;2023-05-10T14:50:10;19.20;99.90
25504;DHT22;13410;52.114;5.718;2023-05-10T14:52:35;19.30;99.90
25504;DHT22;13410;52.114;5.718;2023-05-10T14:55:01;19.50;99.90
25504;DHT22;13410;52.114;5.718;2023-05-10T14:57:27;19.60;99.90
25504;DHT22;13410;52.114;5.718;2023-05-10T14:59:55;19.70;99.90
25504;DHT22;13410;52.114;5.718;2023-05-10T15:02:21;19.60;99.90
25504;DHT22;13410;52.114;5.718;2023-05-10T15:04:47;19.80;99.90
25504;DHT22;13410;52.114;5.718;2023-05-10T15:07:12;19.90;99.90
25504;DHT22;13410;52.114;5.718;2023-05-10T15:09:40;20.10;99.90
25504;DHT22;13410;52.114;5.718;2023-05-10T15:12:06;20.20;99.90
25504;DHT22;13410;52.114;5.718;2023-05-10T15:14:34;20.30;99.90
25504;DHT22;13410;52.114;5.718;2023-05-10T15:17:01;20.40;99.90
25504;DHT22;13410;52.114;5.718;2023-05-10T15:19:27;20.30;99.90
25504;DHT22;13410;52.114;5.718;2023-05-10T15:21:54;20.30;99.90
25504;DHT22;13410;52.114;5.718;2023-05-10T15:24:20;20.10;99.90
25504;DHT22;13410;52.114;5.718;2023-05-10T15:26:46;20.10;99.90
25504;DHT22;13410;52.114;5.718;2023-05-10T15:29:12;20.30;99.90
25504;DHT22;13410;52.114;5.718;2023-05-10T15:31:47;20.60;99.90
25504;DHT22;13410;52.114;5.718;2023-05-10T15:34:14;20.60;99.90
25504;DHT22;13410;52.114;5.718;2023-05-10T15:36:39;20.50;99.90
25504;DHT22;13410;52.114;5.718;2023-05-10T15:39:05;20.40;99.90
25504;DHT22;13410;52.114;5.718;2023-05-10T15:41:30;20.30;99.90
25504;DHT22;13410;52.114;5.718;2023-05-10T15:43:57;20.60;99.90
25504;DHT22;13410;52.114;5.718;2023-05-10T15:46:25;20.60;99.90
25504;DHT22;13410;52.114;5.718;2023-05-10T15:48:51;20.70;99.90